Time;durP1;ratioP1;P1;durP2;ratioP2;P2;SDS_P1;SDS_P2;PMS_P1;PMS_P2;Temp;Humidity;BMP_temperature;BMP_pressure;BME280_temperature;BME280_humidity;BME280_pressure;Samples;Min_cycle;Max_cycle;Signal;HPM_P1;HPM_P2
2021/05/14 00:01:28;;;;;;;1.83;1.40;;;;;;;11.77;92.70;95163.83;128085;1101;22784;-85
2021/05/14 00:03:58;;;;;;;1.93;1.50;;;;;;;11.74;93.60;95151.20;128030;1101;23695;-85
2021/05/14 00:06:28;;;;;;;2.40;1.43;;;;;;;11.73;93.48;95158.39;128065;1101;23691;-82
2021/05/14 00:08:57;;;;;;;1.78;1.50;;;;;;;11.72;93.68;95164.80;128038;1101;22753;-85
2021/05/14 00:11:27;;;;;;;1.67;1.23;;;;;;;11.74;93.91;95165.25;128072;1101;22759;-82
2021/05/14 00:13:59;;;;;;;2.38;1.20;;;;;;;11.74;93.88;95159.94;128081;1096;23698;-85
2021/05/14 00:16:29;;;;;;;2.20;1.45;;;;;;;11.74;93.89;95161.82;128075;1101;22759;-84
2021/05/14 00:18:59;;;;;;;2.33;1.38;;;;;;;11.74;93.49;95161.82;128065;1101;22923;-83
2021/05/14 00:21:29;;;;;;;1.55;1.20;;;;;;;11.76;93.62;95163.05;128023;1094;25868;-84
2021/05/14 00:23:59;;;;;;;1.65;1.40;;;;;;;11.77;94.21;95163.83;128050;1096;26261;-87
2021/05/14 00:26:37;;;;;;;1.38;0.90;;;;;;;11.75;93.96;95166.81;128028;1101;22774;-83
2021/05/14 00:29:07;;;;;;;1.37;1.10;;;;;;;11.74;93.90;95156.52;128061;1101;23505;-82
2021/05/14 00:31:37;;;;;;;1.10;0.90;;;;;;;11.71;93.74;95157.94;128055;1101;23305;-85
2021/05/14 00:34:07;;;;;;;1.35;0.80;;;;;;;11.71;93.56;95157.94;128072;1101;22750;-81
2021/05/14 00:36:37;;;;;;;1.30;0.90;;;;;;;11.73;93.65;95158.39;128125;1096;26207;-84
2021/05/14 00:39:07;;;;;;;1.10;0.60;;;;;;;11.70;93.85;95168.88;128152;1101;23386;-83
2021/05/14 00:41:37;;;;;;;1.37;0.90;;;;;;;11.66;94.19;95160.75;128122;1101;22777;-85
2021/05/14 00:44:25;;;;;;;1.08;0.88;;;;;;;11.65;94.06;95159.20;128139;1096;26581;-81
2021/05/14 00:46:56;;;;;;;1.68;0.83;;;;;;;11.63;94.00;95161.40;128061;1101;22753;-82
2021/05/14 00:49:26;;;;;;;1.68;1.08;;;;;;;11.62;94.45;95164.38;128075;1096;22738;-82
2021/05/14 00:51:58;;;;;;;2.40;0.83;;;;;;;11.59;94.51;95163.14;128004;1101;22761;-83
2021/05/14 00:54:29;;;;;;;1.10;0.98;;;;;;;11.60;94.57;95162.05;128049;1101;22754;-85
2021/05/14 00:57:00;;;;;;;1.00;0.90;;;;;;;11.59;94.67;95157.83;128121;1096;22738;-83
2021/05/14 00:59:29;;;;;;;;;;;;;;;11.58;94.95;95159.71;128067;1101;22792;-83
2021/05/14 01:01:59;;;;;;;1.15;1.05;;;;;;;11.57;94.76;95162.69;128077;1096;23055;-88
2021/05/14 01:04:29;;;;;;;1.30;0.78;;;;;;;11.57;94.83;95157.38;128058;1101;22784;-83
2021/05/14 01:06:58;;;;;;;1.95;0.90;;;;;;;11.56;94.91;95166.44;128072;1101;22757;-84
2021/05/14 01:09:28;;;;;;;0.85;0.73;;;;;;;11.55;95.24;95162.23;128056;1101;22753;-85
2021/05/14 01:11:58;;;;;;;1.35;0.85;;;;;;;11.54;95.10;95158.80;128065;1101;22759;-83
2021/05/14 01:14:28;;;;;;;1.08;0.90;;;;;;;11.55;95.05;95170.20;128043;1101;22767;-85
2021/05/14 01:16:58;;;;;;;1.35;0.70;;;;;;;11.57;94.93;95168.00;128054;1101;22956;-82
2021/05/14 01:19:28;;;;;;;2.07;1.10;;;;;;;11.58;94.73;95167.67;128028;1101;22757;-84
2021/05/14 01:21:58;;;;;;;0.83;0.73;;;;;;;11.58;94.67;95158.94;128034;1101;22759;-83
2021/05/14 01:24:28;;;;;;;0.78;0.70;;;;;;;11.57;94.59;95157.38;128061;1101;22753;-85
2021/05/14 01:26:58;;;;;;;1.57;0.77;;;;;;;11.56;94.31;95155.83;128056;1101;23061;-85
2021/05/14 01:29:28;;;;;;;2.68;0.90;;;;;;;11.55;94.41;95165.66;128080;1101;23682;-83
2021/05/14 01:31:58;;;;;;;0.60;0.60;;;;;;;11.54;94.45;95166.77;128037;1096;26357;-87
2021/05/14 01:34:27;;;;;;;1.45;0.78;;;;;;;11.54;94.50;95164.11;128109;1101;23540;-83
2021/05/14 01:36:57;;;;;;;0.58;0.50;;;;;;;11.52;94.28;95157.54;128143;1094;25868;-85
2021/05/14 01:39:27;;;;;;;0.98;0.75;;;;;;;11.52;94.48;95155.66;128078;1101;22738;-84
2021/05/14 01:41:57;;;;;;;1.15;0.50;;;;;;;11.52;94.57;95154.89;128021;1101;22926;-82
2021/05/14 01:44:28;;;;;;;1.98;0.65;;;;;;;11.53;94.63;95151.13;128078;1101;22784;-84
2021/05/14 01:46:58;;;;;;;0.75;0.63;;;;;;;11.54;94.43;95152.69;128082;1101;22749;-85
2021/05/14 01:49:28;;;;;;;1.70;0.67;;;;;;;11.55;94.43;95154.27;128044;1101;22916;-84
2021/05/14 01:51:58;;;;;;;0.83;0.60;;;;;;;11.57;94.55;95157.38;128036;1101;22777;-83
2021/05/14 01:54:28;;;;;;;1.85;0.90;;;;;;;11.58;94.48;95153.63;128059;1101;24408;-85
2021/05/14 01:56:57;;;;;;;0.70;0.50;;;;;;;11.58;94.40;95156.28;128033;1101;22751;-84
2021/05/14 01:59:27;;;;;;;1.17;0.70;;;;;;;11.53;94.35;95149.25;128093;1096;23315;-83
2021/05/14 02:01:57;;;;;;;1.33;0.90;;;;;;;11.54;94.31;95156.15;128055;1101;22753;-83
2021/05/14 02:04:27;;;;;;;1.23;0.80;;;;;;;11.54;94.69;95158.00;128069;1101;24118;-82
2021/05/14 02:06:57;;;;;;;1.00;0.80;;;;;;;11.54;94.58;95164.11;128070;1101;22753;-83
2021/05/14 02:09:27;;;;;;;0.95;0.80;;;;;;;11.57;94.46;95160.81;128161;1096;26232;-83
2021/05/14 02:11:56;;;;;;;1.23;0.80;;;;;;;11.57;94.37;95165.34;128040;1101;22759;-83
2021/05/14 02:14:26;;;;;;;0.85;0.65;;;;;;;11.56;94.58;95161.14;128060;1101;22792;-82
2021/05/14 02:16:56;;;;;;;1.80;0.93;;;;;;;11.53;94.63;95159.88;128026;1101;22815;-83
2021/05/14 02:19:26;;;;;;;1.10;0.50;;;;;;;11.53;94.56;95164.41;128075;1101;22739;-83
2021/05/14 02:21:56;;;;;;;0.93;0.75;;;;;;;11.52;94.67;95163.63;128068;1101;22831;-83
2021/05/14 02:24:26;;;;;;;1.75;0.93;;;;;;;11.52;94.67;95160.97;128037;1101;22758;-84
2021/05/14 02:26:56;;;;;;;1.25;0.55;;;;;;;11.52;94.50;95160.20;128077;1101;22760;-82
2021/05/14 02:29:25;;;;;;;1.45;0.70;;;;;;;11.49;94.47;95155.53;128064;1101;22777;-83
2021/05/14 02:31:55;;;;;;;0.80;0.73;;;;;;;11.49;94.75;95150.22;128064;1101;22781;-84
2021/05/14 02:34:25;;;;;;;1.35;0.83;;;;;;;11.48;94.60;95164.59;128099;1101;22906;-82
2021/05/14 02:36:55;;;;;;;1.48;0.80;;;;;;;11.47;94.77;95157.73;128063;1101;22777;-82
2021/05/14 02:39:25;;;;;;;0.58;0.50;;;;;;;11.47;94.77;95157.73;128092;1101;22781;-83
2021/05/14 02:41:55;;;;;;;0.97;0.73;;;;;;;11.48;94.77;95159.28;128085;1096;22784;-84
2021/05/14 02:44:25;;;;;;;0.83;0.55;;;;;;;11.49;94.93;95155.53;128117;1096;26242;-83
2021/05/14 02:46:58;;;;;;;1.33;0.70;;;;;;;11.49;94.50;95168.80;128095;1096;22777;-84
2021/05/14 02:49:28;;;;;;;1.03;0.80;;;;;;;11.47;95.16;95163.81;128053;1101;22750;-84
2021/05/14 02:51:58;;;;;;;0.80;0.58;;;;;;;11.44;95.25;95163.68;128032;1101;22775;-82
2021/05/14 02:54:28;;;;;;;1.55;1.20;;;;;;;11.43;95.14;95162.13;128060;1101;22853;-84
2021/05/14 02:56:58;;;;;;;1.43;0.73;;;;;;;11.43;95.19;95170.86;128057;1101;22921;-85
2021/05/14 02:59:28;;;;;;;0.70;0.60;;;;;;;11.40;95.12;95158.23;128062;1101;22773;-83
2021/05/14 03:01:58;;;;;;;1.03;0.75;;;;;;;11.39;94.88;95159.30;128050;1101;22777;-84
2021/05/14 03:04:28;;;;;;;0.63;0.63;;;;;;;11.41;94.96;95161.67;128098;1101;22875;-85
2021/05/14 03:06:58;;;;;;;0.60;0.60;;;;;;;11.40;94.88;95163.55;128123;1101;22753;-84
2021/05/14 03:09:28;;;;;;;1.28;0.73;;;;;;;11.43;94.79;95168.20;128096;1101;22763;-84
2021/05/14 03:11:58;;;;;;;1.15;0.80;;;;;;;11.46;94.83;95164.14;128069;1101;22798;-82
2021/05/14 03:14:28;;;;;;;1.40;0.58;;;;;;;11.46;94.83;95169.44;128048;1101;23206;-84
2021/05/14 03:16:59;;;;;;;0.90;0.60;;;;;;;11.48;94.78;95167.24;128073;1101;22777;-85
2021/05/14 03:19:29;;;;;;;0.83;0.67;;;;;;;11.48;94.65;95169.90;128054;1101;22777;-85
2021/05/14 03:21:59;;;;;;;0.93;0.63;;;;;;;11.50;94.67;95171.13;128081;1101;22771;-83
2021/05/14 03:24:29;;;;;;;0.65;0.60;;;;;;;11.52;94.61;95171.59;128054;1101;22777;-83
2021/05/14 03:26:59;;;;;;;2.15;0.65;;;;;;;11.54;94.55;95174.73;128052;1101;22758;-82
2021/05/14 03:29:29;;;;;;;0.75;0.50;;;;;;;11.54;94.45;95173.92;128086;1101;22816;-81
2021/05/14 03:31:59;;;;;;;0.50;0.50;;;;;;;11.52;94.36;95174.24;128050;1101;24394;-84
2021/05/14 03:34:28;;;;;;;0.58;0.45;;;;;;;11.49;94.30;95172.23;128067;1101;22759;-85
2021/05/14 03:36:58;;;;;;;0.98;0.70;;;;;;;11.47;94.35;95171.00;128077;1101;22863;-83
2021/05/14 03:39:28;;;;;;;0.88;0.68;;;;;;;11.46;94.76;95175.53;128059;1101;22757;-83
2021/05/14 03:42:13;;;;;;;0.73;0.73;;;;;;;11.45;94.55;95183.81;128072;1101;22767;-84
2021/05/14 03:44:44;;;;;;;0.85;0.60;;;;;;;11.43;94.62;95186.78;128100;1101;22741;-84
2021/05/14 03:47:25;;;;;;;1.40;0.80;;;;;;;11.42;94.78;95181.80;128088;1101;22761;-86
2021/05/14 03:49:55;;;;;;;0.60;0.50;;;;;;;11.41;95.12;95181.02;128068;1101;23048;-83
2021/05/14 03:52:25;;;;;;;0.95;0.70;;;;;;;11.42;94.99;95182.58;128088;1101;22833;-83
2021/05/14 03:54:55;;;;;;;1.85;0.73;;;;;;;11.45;95.12;95178.50;128061;1101;22925;-84
2021/05/14 03:57:25;;;;;;;0.75;0.70;;;;;;;11.45;94.89;95191.77;128060;1101;22759;-83
2021/05/14 03:59:55;;;;;;;0.98;0.80;;;;;;;11.47;94.80;95192.23;128037;1101;22754;-84
2021/05/14 04:02:25;;;;;;;0.77;0.70;;;;;;;11.49;94.72;95197.99;128074;1101;22839;-83
2021/05/14 04:04:55;;;;;;;1.05;0.80;;;;;;;11.50;94.79;95199.55;128095;1101;25340;-84
2021/05/14 04:07:25;;;;;;;1.43;0.75;;;;;;;11.53;94.78;95201.56;128045;1101;22753;-84
2021/05/14 04:10:04;;;;;;;1.35;0.78;;;;;;;11.52;94.64;95200.78;128060;1101;22777;-84
2021/05/14 04:15:22;;;;;;;0.60;0.50;;;;;;;11.55;94.45;95202.05;128089;1094;27186;-84
2021/05/14 04:17:53;;;;;;;1.03;0.60;;;;;;;11.57;94.44;95205.16;128053;1101;22777;-84
2021/05/14 04:20:23;;;;;;;0.75;0.60;;;;;;;11.56;94.41;95206.25;128067;1101;25564;-85
2021/05/14 04:22:53;;;;;;;0.63;0.50;;;;;;;11.57;94.49;95210.47;128052;1101;22750;-84
2021/05/14 04:25:23;;;;;;;1.10;0.73;;;;;;;11.57;94.50;95213.12;128060;1101;22783;-83
2021/05/14 04:27:53;;;;;;;1.00;0.50;;;;;;;11.54;94.35;95206.58;128061;1094;22819;-85
2021/05/14 04:30:23;;;;;;;1.03;0.65;;;;;;;11.54;94.66;95208.42;128037;1096;27589;-85
2021/05/14 04:32:53;;;;;;;0.50;0.50;;;;;;;11.52;94.85;95208.74;128064;1101;22837;-83
2021/05/14 04:35:24;;;;;;;0.55;0.55;;;;;;;11.51;94.90;95217.80;128060;1101;22954;-84
2021/05/14 04:37:54;;;;;;;0.70;0.70;;;;;;;11.52;94.61;95210.63;128081;1101;22777;-86
2021/05/14 04:40:23;;;;;;;0.85;0.70;;;;;;;11.52;94.67;95221.23;128048;1101;22753;-83
2021/05/14 04:42:59;;;;;;;2.15;0.65;;;;;;;11.51;94.89;95219.68;128067;1096;22801;-85
2021/05/14 04:45:30;;;;;;;0.50;0.40;;;;;;;11.50;94.69;95215.47;128071;1101;22759;-82
2021/05/14 04:48:00;;;;;;;0.88;0.60;;;;;;;11.52;94.74;95222.02;128050;1101;22777;-83
2021/05/14 04:50:29;;;;;;;;;;;;;;;11.52;94.75;95219.36;128038;1101;22777;-84
2021/05/14 04:53:04;;;;;;;0.70;0.60;;;;;;;11.53;94.76;95220.14;128062;1101;21465;-84
2021/05/14 04:55:34;;;;;;;1.83;0.68;;;;;;;11.56;94.70;95225.61;128049;1101;22926;-83
2021/05/14 04:58:04;;;;;;;0.70;0.70;;;;;;;11.62;94.66;95226.20;128075;1101;24397;-83
2021/05/14 05:00:34;;;;;;;1.10;0.78;;;;;;;11.62;94.63;95231.52;128165;1101;22771;-84
2021/05/14 05:03:07;;;;;;;1.48;1.00;;;;;;;11.64;94.61;95229.31;128143;1101;22837;-83
2021/05/14 05:05:38;;;;;;;1.35;0.80;;;;;;;11.66;94.53;95234.30;128138;1101;22829;-83
2021/05/14 05:08:08;;;;;;;1.00;0.90;;;;;;;11.64;94.55;95231.97;128132;1101;22780;-81
2021/05/14 05:10:38;;;;;;;1.60;0.70;;;;;;;11.64;94.34;95233.84;128131;1101;22753;-83
2021/05/14 05:13:08;;;;;;;0.60;0.60;;;;;;;11.63;94.44;95233.07;128174;1101;22781;-82
2021/05/14 05:15:38;;;;;;;1.03;0.80;;;;;;;11.61;94.28;95235.27;128086;1101;23720;-83
2021/05/14 05:18:08;;;;;;;1.13;0.70;;;;;;;11.59;94.44;95235.59;128083;1101;22771;-82
2021/05/14 05:20:37;;;;;;;1.20;0.88;;;;;;;11.58;94.42;95241.22;128062;1101;22784;-83
2021/05/14 05:23:07;;;;;;;1.28;0.98;;;;;;;11.57;94.62;95243.09;128078;1101;22834;-83
2021/05/14 05:25:37;;;;;;;1.55;1.08;;;;;;;11.56;94.44;95240.76;128068;1096;27410;-82
2021/05/14 05:28:08;;;;;;;1.90;1.00;;;;;;;11.54;94.90;95241.08;128065;1101;22785;-83
2021/05/14 05:30:38;;;;;;;2.18;1.40;;;;;;;11.55;94.63;95239.20;128054;1101;22825;-84
2021/05/14 05:33:08;;;;;;;1.30;1.20;;;;;;;11.55;94.72;95244.52;128101;1101;22816;-84
2021/05/14 05:35:38;;;;;;;1.60;1.48;;;;;;;11.55;94.79;95255.13;128069;1094;25980;-84
2021/05/14 05:38:17;;;;;;;4.28;1.90;;;;;;;11.55;95.01;95242.63;128084;1101;22777;-83
2021/05/14 05:40:48;;;;;;;3.38;1.85;;;;;;;11.59;95.14;95245.42;128044;1101;22738;-84
2021/05/14 05:43:18;;;;;;;2.23;1.83;;;;;;;11.62;95.08;95252.75;128076;1101;22791;-83
2021/05/14 05:45:47;;;;;;;;;;;;;;;11.66;95.10;95266.16;128095;1101;22786;-83
2021/05/14 05:48:18;;;;;;;4.35;2.60;;;;;;;11.67;95.03;95260.53;128073;1101;21452;-82
2021/05/14 05:50:46;;;;;;;;;;;;;;;11.68;95.05;95259.43;128090;1101;22841;-82
2021/05/14 05:53:16;;;;;;;3.30;2.68;;;;;;;11.68;94.89;95262.09;128055;1101;23106;-83
2021/05/14 05:55:48;;;;;;;5.20;3.05;;;;;;;11.68;94.88;95263.96;128061;1094;26375;-84
2021/05/14 05:58:19;;;;;;;5.50;3.87;;;;;;;11.71;95.04;95274.75;128103;1101;22753;-82
2021/05/14 06:00:49;;;;;;;7.73;5.10;;;;;;;11.71;94.93;95264.13;128066;1101;24394;-83
2021/05/14 06:03:19;;;;;;;8.45;5.20;;;;;;;11.70;94.90;95267.88;128073;1101;22754;-81
2021/05/14 06:05:49;;;;;;;7.35;5.53;;;;;;;11.69;94.82;95276.94;128062;1101;22753;-86
2021/05/14 06:08:19;;;;;;;7.75;5.40;;;;;;;11.69;94.91;95281.47;128067;1101;22757;-82
2021/05/14 06:10:51;;;;;;;9.53;6.70;;;;;;;11.67;94.65;95280.98;128066;1101;22773;-84
2021/05/14 06:13:22;;;;;;;7.98;5.50;;;;;;;11.68;94.78;95285.98;128094;1095;26363;-83
2021/05/14 06:15:53;;;;;;;7.97;5.27;;;;;;;11.68;94.67;95287.85;128076;1101;22843;-83
2021/05/14 06:18:23;;;;;;;8.60;5.53;;;;;;;11.68;94.63;95288.63;128064;1101;22817;-84
2021/05/14 06:20:54;;;;;;;8.75;5.75;;;;;;;11.66;94.48;95290.83;128070;1101;22757;-83
2021/05/14 06:23:24;;;;;;;9.23;5.48;;;;;;;11.64;94.40;95298.33;128052;1101;22767;-83
2021/05/14 06:25:54;;;;;;;7.63;4.75;;;;;;;11.65;94.32;95301.77;128062;1101;22919;-84
2021/05/14 06:28:32;;;;;;;7.48;5.43;;;;;;;11.67;94.47;95296.91;128042;1101;24118;-83
2021/05/14 06:31:02;;;;;;;6.60;4.53;;;;;;;11.66;94.32;95301.45;128078;1101;22825;-86
2021/05/14 06:33:32;;;;;;;7.45;5.33;;;;;;;11.65;94.39;95310.51;128116;1101;22783;-83
2021/05/14 06:36:02;;;;;;;8.05;5.00;;;;;;;11.63;94.41;95304.73;128091;1096;22757;-85
2021/05/14 06:38:32;;;;;;;6.63;4.98;;;;;;;11.63;94.50;95306.62;128061;1101;22753;-84
2021/05/14 06:41:02;;;;;;;8.63;5.63;;;;;;;11.60;94.42;95310.69;128076;1101;22753;-84
2021/05/14 06:43:32;;;;;;;8.10;5.25;;;;;;;11.55;94.40;95314.30;128176;1094;26206;-84
2021/05/14 06:46:02;;;;;;;7.33;5.35;;;;;;;11.49;94.87;95320.07;128153;1096;22742;-85
2021/05/14 06:48:35;;;;;;;8.10;5.03;;;;;;;11.44;94.40;95318.37;128156;1101;22923;-85
2021/05/14 06:51:06;;;;;;;7.78;5.25;;;;;;;11.41;94.64;95324.31;128145;1096;26257;-82
2021/05/14 06:53:35;;;;;;;;;;;;;;;11.37;94.70;95318.05;128078;1101;22954;-85
2021/05/14 06:56:05;;;;;;;7.35;5.35;;;;;;;11.37;95.04;95322.58;128068;1101;21464;-84
2021/05/14 06:58:36;;;;;;;8.70;5.53;;;;;;;11.36;95.17;95326.33;128070;1096;27190;-85
2021/05/14 07:01:05;;;;;;;7.73;5.25;;;;;;;11.36;95.13;95331.64;128052;1101;24548;-83
2021/05/14 07:03:36;;;;;;;7.93;5.33;;;;;;;11.32;95.33;95331.49;128065;1101;22785;-85
2021/05/14 07:06:06;;;;;;;7.38;5.15;;;;;;;11.32;95.53;95338.67;128132;1101;22885;-83
2021/05/14 07:08:37;;;;;;;8.38;5.55;;;;;;;11.32;95.56;95338.67;128098;1101;22945;-87
2021/05/14 07:11:07;;;;;;;8.03;5.33;;;;;;;11.28;95.70;95339.30;128031;1101;22774;-83
2021/05/14 07:13:38;;;;;;;7.25;5.20;;;;;;;11.28;95.60;95346.48;128123;1101;22818;-85
2021/05/14 07:16:08;;;;;;;8.68;5.58;;;;;;;11.27;95.55;95343.05;128170;1101;22925;-84
2021/05/14 07:18:39;;;;;;;8.98;5.85;;;;;;;11.26;95.50;95354.76;128028;1101;22753;-83
2021/05/14 07:21:09;;;;;;;8.05;5.90;;;;;;;11.26;95.28;95353.95;128105;1101;22757;-83
2021/05/14 07:23:41;;;;;;;10.05;5.80;;;;;;;11.25;95.37;95355.83;128038;1101;24350;-84
2021/05/14 07:26:11;;;;;;;7.13;5.27;;;;;;;11.26;95.21;95354.76;128059;1096;22773;-83
2021/05/14 07:28:41;;;;;;;8.70;5.73;;;;;;;11.28;95.35;95365.83;128058;1101;24524;-83
2021/05/14 07:31:11;;;;;;;7.95;6.00;;;;;;;11.29;95.25;95370.05;128090;1101;22753;-82
2021/05/14 07:33:44;;;;;;;8.60;5.90;;;;;;;11.33;95.27;95370.19;128131;1101;22750;-84
2021/05/14 07:36:14;;;;;;;9.45;5.73;;;;;;;11.34;95.38;95370.97;128079;1101;22844;-86
2021/05/14 07:38:44;;;;;;;6.80;5.23;;;;;;;11.39;95.36;95376.11;128052;1101;22779;-84
2021/05/14 07:41:15;;;;;;;9.38;6.10;;;;;;;11.40;95.29;95373.17;128058;1097;22766;-83
2021/05/14 07:43:45;;;;;;;6.80;5.00;;;;;;;11.47;95.28;95372.69;128059;1093;26516;-86
2021/05/14 07:46:16;;;;;;;7.68;5.48;;;;;;;11.53;94.89;95376.73;128078;1101;22918;-85
2021/05/14 07:48:54;;;;;;;8.03;5.85;;;;;;;11.52;95.19;95378.60;128144;1096;27654;-84
2021/05/14 07:51:24;;;;;;;9.33;6.38;;;;;;;11.50;95.07;95380.02;128119;1096;27113;-83
2021/05/14 07:53:55;;;;;;;10.50;7.40;;;;;;;11.43;94.75;95380.50;128056;1101;22753;-85
2021/05/14 07:56:25;;;;;;;10.43;7.83;;;;;;;11.37;94.46;95384.39;128079;1096;22761;-83
2021/05/14 07:58:55;;;;;;;14.10;9.35;;;;;;;11.33;94.55;95383.46;128078;1101;22777;-85
2021/05/14 08:01:25;;;;;;;12.65;8.85;;;;;;;11.28;94.67;95384.41;128061;1101;22757;-84
2021/05/14 08:03:56;;;;;;;13.33;9.70;;;;;;;11.27;94.73;95390.80;128097;1101;22757;-84
2021/05/14 08:06:26;;;;;;;15.48;9.75;;;;;;;11.28;94.93;95394.23;128092;1101;24346;-83
2021/05/14 08:08:58;;;;;;;15.40;11.27;;;;;;;11.26;95.04;95393.75;128077;1101;22778;-87
2021/05/14 08:11:28;;;;;;;14.20;10.03;;;;;;;11.26;94.96;95401.70;128029;1094;27068;-83
2021/05/14 08:13:58;;;;;;;16.53;11.13;;;;;;;11.26;95.05;95397.20;128075;1094;26485;-87
2021/05/14 08:16:28;;;;;;;15.60;10.25;;;;;;;11.28;95.24;95396.89;128057;1101;22872;-85
2021/05/14 08:18:59;;;;;;;19.95;13.63;;;;;;;11.28;95.27;95397.67;128026;1101;24256;-84
2021/05/14 08:21:29;;;;;;;21.68;13.83;;;;;;;11.28;95.27;95397.67;128073;1101;22859;-85
2021/05/14 08:23:59;;;;;;;22.38;14.10;;;;;;;11.26;95.39;95409.66;128054;1101;22819;-87
2021/05/14 08:26:29;;;;;;;19.25;12.65;;;;;;;11.20;95.50;95402.96;128045;1101;22757;-84
2021/05/14 08:28:59;;;;;;;25.38;16.95;;;;;;;11.15;95.34;95405.77;128077;1094;26718;-87
2021/05/14 08:31:32;;;;;;;21.63;15.70;;;;;;;11.12;95.62;95419.63;128051;1101;23189;-84
2021/05/14 08:34:03;;;;;;;21.88;16.98;;;;;;;11.12;95.91;95422.28;128060;1094;26775;-83
2021/05/14 08:36:33;;;;;;;20.52;13.63;;;;;;;11.10;95.50;95419.17;128073;1096;22842;-83
2021/05/14 08:39:04;;;;;;;18.70;13.25;;;;;;;11.08;95.88;95424.78;128056;1101;22922;-84
2021/05/14 08:41:36;;;;;;;19.93;14.60;;;;;;;11.11;95.90;95426.81;128055;1101;24349;-83
2021/05/14 08:44:08;;;;;;;20.70;13.93;;;;;;;11.18;95.99;95432.45;128098;1095;25989;-83
2021/05/14 08:46:40;;;;;;;19.08;13.78;;;;;;;11.20;95.76;95430.27;128073;1101;22770;-86
2021/05/14 08:49:17;;;;;;;19.10;12.25;;;;;;;11.20;95.70;95432.92;128067;1101;22836;-82
2021/05/14 08:51:50;;;;;;;17.30;12.40;;;;;;;11.20;95.83;95429.48;128055;1101;22753;-82
2021/05/14 08:54:20;;;;;;;18.58;13.25;;;;;;;11.22;96.00;95436.04;128143;1101;22753;-84
2021/05/14 08:56:50;;;;;;;14.98;10.08;;;;;;;11.27;96.04;95435.91;128134;1096;22742;-84
2021/05/14 08:59:21;;;;;;;15.90;11.80;;;;;;;11.26;95.86;95433.54;128133;1101;22781;-83
2021/05/14 09:01:52;;;;;;;15.88;11.73;;;;;;;11.32;95.97;95437.62;128115;1101;22792;-82
2021/05/14 09:04:22;;;;;;;14.70;10.37;;;;;;;11.36;95.69;95443.86;128039;1101;22777;-82
2021/05/14 09:06:53;;;;;;;11.73;8.50;;;;;;;11.43;95.76;95443.41;128072;1101;22777;-83
2021/05/14 09:09:23;;;;;;;15.80;10.83;;;;;;;11.36;95.51;95457.13;128044;1101;22786;-83
2021/05/14 09:11:53;;;;;;;14.08;10.23;;;;;;;11.35;95.58;95454.78;128055;1101;22804;-83
2021/05/14 09:14:36;;;;;;;17.83;11.33;;;;;;;11.34;95.61;95455.88;128068;1101;22754;-82
2021/05/14 09:17:11;;;;;;;19.05;12.20;;;;;;;11.34;95.84;95455.88;128039;1101;22757;-83
2021/05/14 09:19:43;;;;;;;16.80;11.08;;;;;;;11.35;95.86;95457.44;128062;1101;22772;-83
2021/05/14 09:22:16;;;;;;;16.25;11.40;;;;;;;11.34;95.93;95456.66;128052;1101;22744;-82
2021/05/14 09:24:49;;;;;;;15.90;11.28;;;;;;;11.37;96.43;95460.56;128069;1101;22806;-85
2021/05/14 09:27:30;;;;;;;19.57;12.13;;;;;;;11.40;96.18;95462.58;128080;1101;22787;-83
2021/05/14 09:30:03;;;;;;;14.00;10.10;;;;;;;11.44;96.49;95466.98;128046;1101;22777;-83
2021/05/14 09:32:35;;;;;;;13.05;9.23;;;;;;;11.47;96.74;95471.66;128039;1101;22777;-83
2021/05/14 09:35:08;;;;;;;15.80;10.85;;;;;;;11.47;96.71;95471.66;128046;1101;22773;-82
2021/05/14 09:37:49;;;;;;;15.40;10.30;;;;;;;11.48;97.19;95467.13;128052;1101;22827;-85
2021/05/14 09:40:22;;;;;;;12.55;9.80;;;;;;;11.52;97.23;95473.38;128074;1101;22782;-87
2021/05/14 09:43:02;;;;;;;16.00;11.60;;;;;;;11.67;97.52;95469.47;128034;1101;22819;-84
2021/05/14 09:45:32;;;;;;;18.53;12.25;;;;;;;11.85;97.84;95463.89;128086;1101;22776;-82
2021/05/14 09:48:14;;;;;;;18.90;12.55;;;;;;;12.02;97.34;95464.97;128071;1101;22833;-83
2021/05/14 09:50:45;;;;;;;17.80;12.75;;;;;;;12.17;97.01;95461.81;128040;1101;22777;-85
2021/05/14 09:53:18;;;;;;;22.75;14.68;;;;;;;12.29;96.60;95469.91;128092;1101;22753;-85
2021/05/14 09:55:51;;;;;;;21.77;14.50;;;;;;;12.42;96.79;95468.95;128086;1101;22780;-82
2021/05/14 09:58:25;;;;;;;19.93;14.70;;;;;;;12.53;96.51;95468.58;128056;1101;22773;-87
2021/05/14 10:00:55;;;;;;;25.40;17.18;;;;;;;12.54;94.85;95467.51;128074;1101;22842;-82
2021/05/14 10:03:27;;;;;;;;;;;;;;;12.48;93.06;95469.54;128090;1101;22830;-83
2021/05/14 10:06:03;;;;;;;25.45;17.63;;;;;;;12.43;92.81;95459.88;128081;1101;21664;-84
2021/05/14 10:08:35;;;;;;;25.45;17.98;;;;;;;12.47;93.54;95470.64;128071;1101;22784;-85
2021/05/14 10:11:05;;;;;;;27.53;18.88;;;;;;;12.54;93.16;95467.51;128052;1096;26763;-83
2021/05/14 10:13:38;;;;;;;24.48;18.43;;;;;;;12.49;92.09;95463.13;128038;1101;22778;-84
2021/05/14 10:16:08;;;;;;;27.38;19.73;;;;;;;12.48;92.51;95467.66;128118;1101;22760;-83
2021/05/14 10:18:43;;;;;;;28.25;19.40;;;;;;;12.53;92.33;95466.73;128063;1101;22774;-85
2021/05/14 10:21:16;;;;;;;27.53;17.28;;;;;;;12.52;91.85;95467.02;128084;1101;24417;-82
2021/05/14 10:23:47;;;;;;;26.50;19.35;;;;;;;12.49;91.27;95468.44;128125;1101;22777;-83
2021/05/14 10:26:18;;;;;;;26.45;19.78;;;;;;;12.47;90.96;95460.79;128113;1101;22725;-83
2021/05/14 10:28:50;;;;;;;24.60;17.98;;;;;;;12.51;91.49;95470.78;128051;1101;22754;-86
2021/05/14 10:31:24;;;;;;;29.05;20.83;;;;;;;12.56;91.83;95473.28;128062;1094;26392;-83
2021/05/14 10:33:57;;;;;;;27.18;20.95;;;;;;;12.60;91.31;95477.64;128059;1101;22757;-83
2021/05/14 10:36:48;;;;;;;30.55;19.38;;;;;;;12.69;91.90;95474.96;128068;1093;22809;-84
2021/05/14 10:39:27;;;;;;;29.00;20.75;;;;;;;12.79;92.11;95472.70;128069;1101;22746;-83
2021/05/14 10:42:02;;;;;;;27.25;20.25;;;;;;;12.87;91.54;95473.78;128086;1101;24345;-88
2021/05/14 10:44:51;;;;;;;28.88;19.45;;;;;;;12.94;91.39;95473.27;128095;1101;22753;-85
2021/05/14 10:47:48;;;;;;;28.13;21.18;;;;;;;12.97;91.17;95484.06;128070;1101;22778;-85
2021/05/14 10:50:39;;;;;;;27.20;19.80;;;;;;;12.97;91.55;95484.06;128127;1101;22781;-83
2021/05/14 10:53:29;;;;;;;27.40;20.33;;;;;;;12.99;91.11;95487.19;128088;1101;22763;-83
2021/05/14 10:56:12;;;;;;;;;;;;;;;12.92;90.86;95494.09;128113;1101;22754;-83
2021/05/14 10:58:46;;;;;;;26.23;18.93;;;;;;;12.87;91.09;95495.06;128033;1101;21464;-85
2021/05/14 11:01:31;;;;;;;21.83;16.90;;;;;;;12.93;90.96;95493.77;128133;1096;26223;-84
2021/05/14 11:04:03;;;;;;;22.15;14.80;;;;;;;13.02;91.01;95502.50;128146;1101;22809;-86
2021/05/14 11:06:44;;;;;;;27.00;17.60;;;;;;;13.12;91.19;95500.59;128150;1101;22779;-84
2021/05/14 11:09:15;;;;;;;24.53;18.13;;;;;;;13.23;89.47;95483.16;128175;1101;22757;-83
2021/05/14 11:12:06;;;;;;;24.48;16.33;;;;;;;13.35;89.26;95493.89;128149;1093;26207;-83
2021/05/14 11:14:44;;;;;;;26.38;18.18;;;;;;;13.51;87.98;95496.77;128064;1101;22773;-83
2021/05/14 11:17:16;;;;;;;24.60;17.43;;;;;;;13.79;89.16;95497.03;128163;1101;22843;-85
2021/05/14 11:19:48;;;;;;;26.28;18.60;;;;;;;14.01;87.78;95495.94;128103;1096;22780;-85
2021/05/14 11:22:23;;;;;;;27.63;18.60;;;;;;;14.07;85.58;95490.06;128172;1094;25846;-84
2021/05/14 11:24:55;;;;;;;26.43;17.23;;;;;;;14.20;86.08;95497.00;128168;1101;22753;-84
2021/05/14 11:27:29;;;;;;;26.38;18.80;;;;;;;14.32;83.53;95490.93;128138;1101;22839;-83
2021/05/14 11:30:01;;;;;;;25.60;16.93;;;;;;;14.51;83.90;95493.14;128134;1101;22773;-86
2021/05/14 11:32:34;;;;;;;23.98;16.15;;;;;;;14.74;84.10;95494.27;128138;1101;22869;-86
2021/05/14 11:35:13;;;;;;;21.70;15.68;;;;;;;14.84;81.20;95504.52;128080;1101;22757;-84
2021/05/14 11:37:51;;;;;;;22.03;15.95;;;;;;;15.00;81.86;95503.87;128077;1101;22782;-83
2021/05/14 11:40:24;;;;;;;23.03;17.17;;;;;;;15.10;78.79;95500.77;128053;1101;22764;-84
2021/05/14 11:42:56;;;;;;;21.60;15.95;;;;;;;15.25;80.37;95500.09;128079;1101;22774;-83
2021/05/14 11:45:27;;;;;;;23.38;16.50;;;;;;;15.52;78.09;95506.64;128097;1101;22781;-84